sensor_id;sensor_type;location;lat;lon;timestamp;P1;durP1;ratioP1;P2;durP2;ratioP2
30818;SDS011;17546;42.674;23.284;2022-07-11T00:01:14;7.13;;;3.35;;
30818;SDS011;17546;42.674;23.284;2022-07-11T00:03:39;7.05;;;3.28;;
30818;SDS011;17546;42.674;23.284;2022-07-11T00:06:05;3.60;;;2.50;;
30818;SDS011;17546;42.674;23.284;2022-07-11T00:08:30;4.50;;;2.03;;
30818;SDS011;17546;42.674;23.284;2022-07-11T00:10:56;4.07;;;1.90;;
30818;SDS011;17546;42.674;23.284;2022-07-11T00:13:21;2.72;;;1.45;;
30818;SDS011;17546;42.674;23.284;2022-07-11T00:15:48;2.78;;;1.42;;
30818;SDS011;17546;42.674;23.284;2022-07-11T00:18:14;3.22;;;1.42;;
30818;SDS011;17546;42.674;23.284;2022-07-11T00:20:39;2.75;;;1.60;;
30818;SDS011;17546;42.674;23.284;2022-07-11T00:23:05;3.72;;;1.60;;
30818;SDS011;17546;42.674;23.284;2022-07-11T00:25:30;10.25;;;1.42;;
30818;SDS011;17546;42.674;23.284;2022-07-11T00:27:55;2.13;;;1.35;;
30818;SDS011;17546;42.674;23.284;2022-07-11T00:30:21;4.05;;;1.20;;
30818;SDS011;17546;42.674;23.284;2022-07-11T00:32:46;7.22;;;1.63;;
30818;SDS011;17546;42.674;23.284;2022-07-11T00:35:13;2.65;;;1.30;;
30818;SDS011;17546;42.674;23.284;2022-07-11T00:37:38;3.95;;;1.45;;
30818;SDS011;17546;42.674;23.284;2022-07-11T00:40:04;5.65;;;1.35;;
30818;SDS011;17546;42.674;23.284;2022-07-11T00:42:30;1.95;;;1.40;;
30818;SDS011;17546;42.674;23.284;2022-07-11T00:44:56;9.05;;;1.60;;
30818;SDS011;17546;42.674;23.284;2022-07-11T00:47:22;7.13;;;1.30;;
30818;SDS011;17546;42.674;23.284;2022-07-11T00:49:48;2.75;;;1.50;;
30818;SDS011;17546;42.674;23.284;2022-07-11T00:52:14;3.10;;;1.33;;
30818;SDS011;17546;42.674;23.284;2022-07-11T00:54:42;2.25;;;1.33;;
30818;SDS011;17546;42.674;23.284;2022-07-11T00:57:10;3.35;;;1.40;;
30818;SDS011;17546;42.674;23.284;2022-07-11T00:59:35;3.00;;;1.20;;
30818;SDS011;17546;42.674;23.284;2022-07-11T01:02:01;5.18;;;1.50;;
30818;SDS011;17546;42.674;23.284;2022-07-11T01:04:27;4.53;;;1.35;;
30818;SDS011;17546;42.674;23.284;2022-07-11T01:06:52;2.78;;;1.33;;
30818;SDS011;17546;42.674;23.284;2022-07-11T01:09:18;3.40;;;1.50;;
30818;SDS011;17546;42.674;23.284;2022-07-11T01:11:43;3.70;;;1.60;;
30818;SDS011;17546;42.674;23.284;2022-07-11T01:14:08;2.72;;;1.38;;
30818;SDS011;17546;42.674;23.284;2022-07-11T01:16:34;2.78;;;1.40;;
30818;SDS011;17546;42.674;23.284;2022-07-11T01:18:59;3.67;;;1.40;;
30818;SDS011;17546;42.674;23.284;2022-07-11T01:21:32;2.70;;;1.25;;
30818;SDS011;17546;42.674;23.284;2022-07-11T01:24:13;3.15;;;1.40;;
30818;SDS011;17546;42.674;23.284;2022-07-11T01:26:39;5.45;;;1.65;;
30818;SDS011;17546;42.674;23.284;2022-07-11T01:29:09;3.10;;;1.40;;
30818;SDS011;17546;42.674;23.284;2022-07-11T01:31:40;7.53;;;1.52;;
30818;SDS011;17546;42.674;23.284;2022-07-11T01:34:06;3.97;;;1.60;;
30818;SDS011;17546;42.674;23.284;2022-07-11T01:36:32;4.97;;;1.40;;
30818;SDS011;17546;42.674;23.284;2022-07-11T01:38:57;5.47;;;1.27;;
30818;SDS011;17546;42.674;23.284;2022-07-11T01:41:23;7.00;;;1.60;;
30818;SDS011;17546;42.674;23.284;2022-07-11T01:43:48;3.05;;;1.35;;
30818;SDS011;17546;42.674;23.284;2022-07-11T01:46:14;3.35;;;1.30;;
30818;SDS011;17546;42.674;23.284;2022-07-11T01:48:42;2.72;;;1.35;;
30818;SDS011;17546;42.674;23.284;2022-07-11T01:51:08;3.58;;;1.40;;
30818;SDS011;17546;42.674;23.284;2022-07-11T01:53:34;2.85;;;1.58;;
30818;SDS011;17546;42.674;23.284;2022-07-11T01:55:59;2.30;;;1.10;;
30818;SDS011;17546;42.674;23.284;2022-07-11T01:58:25;5.97;;;1.50;;
30818;SDS011;17546;42.674;23.284;2022-07-11T02:00:50;7.22;;;1.52;;
30818;SDS011;17546;42.674;23.284;2022-07-11T02:03:16;3.85;;;1.40;;
30818;SDS011;17546;42.674;23.284;2022-07-11T02:05:41;3.83;;;1.52;;
30818;SDS011;17546;42.674;23.284;2022-07-11T02:08:08;6.75;;;1.60;;
30818;SDS011;17546;42.674;23.284;2022-07-11T02:10:40;2.30;;;1.35;;
30818;SDS011;17546;42.674;23.284;2022-07-11T02:13:07;5.45;;;1.30;;
30818;SDS011;17546;42.674;23.284;2022-07-11T02:15:34;4.15;;;1.35;;
30818;SDS011;17546;42.674;23.284;2022-07-11T02:18:00;3.17;;;1.40;;
30818;SDS011;17546;42.674;23.284;2022-07-11T02:20:26;4.30;;;1.35;;
30818;SDS011;17546;42.674;23.284;2022-07-11T02:22:52;3.65;;;1.45;;
30818;SDS011;17546;42.674;23.284;2022-07-11T02:25:18;2.60;;;1.38;;
30818;SDS011;17546;42.674;23.284;2022-07-11T02:27:44;2.40;;;1.40;;
30818;SDS011;17546;42.674;23.284;2022-07-11T02:30:10;4.70;;;1.55;;
30818;SDS011;17546;42.674;23.284;2022-07-11T02:32:36;7.35;;;1.60;;
30818;SDS011;17546;42.674;23.284;2022-07-11T02:35:02;4.57;;;1.13;;
30818;SDS011;17546;42.674;23.284;2022-07-11T02:37:28;2.20;;;1.50;;
30818;SDS011;17546;42.674;23.284;2022-07-11T02:39:53;3.00;;;1.17;;
30818;SDS011;17546;42.674;23.284;2022-07-11T02:42:19;1.75;;;1.30;;
30818;SDS011;17546;42.674;23.284;2022-07-11T02:44:45;4.32;;;1.60;;
30818;SDS011;17546;42.674;23.284;2022-07-11T02:47:10;6.40;;;1.50;;
30818;SDS011;17546;42.674;23.284;2022-07-11T02:49:36;4.40;;;1.40;;
30818;SDS011;17546;42.674;23.284;2022-07-11T02:52:01;4.28;;;1.40;;
30818;SDS011;17546;42.674;23.284;2022-07-11T02:54:27;6.93;;;1.70;;
30818;SDS011;17546;42.674;23.284;2022-07-11T02:56:53;3.58;;;1.30;;
30818;SDS011;17546;42.674;23.284;2022-07-11T02:59:19;8.30;;;1.40;;
30818;SDS011;17546;42.674;23.284;2022-07-11T03:01:44;3.83;;;1.38;;
30818;SDS011;17546;42.674;23.284;2022-07-11T03:04:11;6.65;;;1.70;;
30818;SDS011;17546;42.674;23.284;2022-07-11T03:06:36;5.55;;;1.60;;
30818;SDS011;17546;42.674;23.284;2022-07-11T03:09:03;4.82;;;1.60;;
30818;SDS011;17546;42.674;23.284;2022-07-11T03:11:30;4.68;;;2.03;;
30818;SDS011;17546;42.674;23.284;2022-07-11T03:13:56;2.58;;;1.40;;
30818;SDS011;17546;42.674;23.284;2022-07-11T03:16:22;4.25;;;1.35;;
30818;SDS011;17546;42.674;23.284;2022-07-11T03:18:49;3.72;;;1.40;;
30818;SDS011;17546;42.674;23.284;2022-07-11T03:21:15;6.25;;;1.50;;
30818;SDS011;17546;42.674;23.284;2022-07-11T03:23:40;5.25;;;1.55;;
30818;SDS011;17546;42.674;23.284;2022-07-11T03:26:06;7.13;;;1.60;;
30818;SDS011;17546;42.674;23.284;2022-07-11T03:28:31;5.43;;;1.58;;
30818;SDS011;17546;42.674;23.284;2022-07-11T03:30:56;7.22;;;1.40;;
30818;SDS011;17546;42.674;23.284;2022-07-11T03:33:22;6.03;;;1.45;;
30818;SDS011;17546;42.674;23.284;2022-07-11T03:35:48;6.65;;;1.63;;
30818;SDS011;17546;42.674;23.284;2022-07-11T03:38:16;5.28;;;1.60;;
30818;SDS011;17546;42.674;23.284;2022-07-11T03:40:43;4.13;;;1.50;;
30818;SDS011;17546;42.674;23.284;2022-07-11T03:43:09;9.95;;;1.80;;
30818;SDS011;17546;42.674;23.284;2022-07-11T03:45:35;7.05;;;2.70;;
30818;SDS011;17546;42.674;23.284;2022-07-11T03:48:01;9.77;;;2.10;;
30818;SDS011;17546;42.674;23.284;2022-07-11T03:50:27;2.80;;;1.73;;
30818;SDS011;17546;42.674;23.284;2022-07-11T03:52:52;6.40;;;1.88;;
30818;SDS011;17546;42.674;23.284;2022-07-11T03:55:18;3.45;;;1.90;;
30818;SDS011;17546;42.674;23.284;2022-07-11T03:57:43;7.03;;;2.25;;
30818;SDS011;17546;42.674;23.284;2022-07-11T04:00:09;6.80;;;2.03;;
30818;SDS011;17546;42.674;23.284;2022-07-11T04:02:35;4.43;;;2.20;;
30818;SDS011;17546;42.674;23.284;2022-07-11T04:05:01;7.55;;;2.03;;
30818;SDS011;17546;42.674;23.284;2022-07-11T04:07:27;4.63;;;1.95;;
30818;SDS011;17546;42.674;23.284;2022-07-11T04:09:53;5.93;;;1.60;;
30818;SDS011;17546;42.674;23.284;2022-07-11T04:12:19;3.72;;;1.40;;
30818;SDS011;17546;42.674;23.284;2022-07-11T04:14:45;4.15;;;1.90;;
30818;SDS011;17546;42.674;23.284;2022-07-11T04:17:10;2.83;;;1.77;;
30818;SDS011;17546;42.674;23.284;2022-07-11T04:19:36;7.55;;;1.70;;
30818;SDS011;17546;42.674;23.284;2022-07-11T04:22:01;7.00;;;1.88;;
30818;SDS011;17546;42.674;23.284;2022-07-11T04:24:27;3.53;;;1.65;;
30818;SDS011;17546;42.674;23.284;2022-07-11T04:26:52;4.82;;;1.90;;
30818;SDS011;17546;42.674;23.284;2022-07-11T04:29:18;9.23;;;2.22;;
30818;SDS011;17546;42.674;23.284;2022-07-11T04:31:43;4.68;;;1.98;;
30818;SDS011;17546;42.674;23.284;2022-07-11T04:34:09;3.60;;;1.98;;
30818;SDS011;17546;42.674;23.284;2022-07-11T04:36:34;4.53;;;2.10;;
30818;SDS011;17546;42.674;23.284;2022-07-11T04:38:59;3.30;;;1.90;;
30818;SDS011;17546;42.674;23.284;2022-07-11T04:41:25;3.33;;;1.90;;
30818;SDS011;17546;42.674;23.284;2022-07-11T04:43:51;11.82;;;2.25;;
30818;SDS011;17546;42.674;23.284;2022-07-11T04:46:16;4.03;;;1.90;;
30818;SDS011;17546;42.674;23.284;2022-07-11T04:48:43;5.15;;;2.00;;
30818;SDS011;17546;42.674;23.284;2022-07-11T04:51:09;2.85;;;1.75;;
30818;SDS011;17546;42.674;23.284;2022-07-11T04:53:35;5.65;;;2.05;;
30818;SDS011;17546;42.674;23.284;2022-07-11T04:56:01;6.25;;;1.90;;
30818;SDS011;17546;42.674;23.284;2022-07-11T04:58:26;3.25;;;1.80;;
30818;SDS011;17546;42.674;23.284;2022-07-11T05:00:52;4.90;;;2.22;;
30818;SDS011;17546;42.674;23.284;2022-07-11T05:03:19;10.23;;;2.10;;
30818;SDS011;17546;42.674;23.284;2022-07-11T05:05:45;7.18;;;2.05;;
30818;SDS011;17546;42.674;23.284;2022-07-11T05:08:12;5.35;;;1.80;;
30818;SDS011;17546;42.674;23.284;2022-07-11T05:10:38;16.70;;;2.20;;
30818;SDS011;17546;42.674;23.284;2022-07-11T05:13:04;7.85;;;2.38;;
30818;SDS011;17546;42.674;23.284;2022-07-11T05:15:30;5.68;;;1.80;;
30818;SDS011;17546;42.674;23.284;2022-07-11T05:17:56;4.82;;;2.00;;
30818;SDS011;17546;42.674;23.284;2022-07-11T05:20:21;6.53;;;2.28;;
30818;SDS011;17546;42.674;23.284;2022-07-11T05:22:47;7.80;;;1.80;;
30818;SDS011;17546;42.674;23.284;2022-07-11T05:25:12;6.90;;;1.95;;
30818;SDS011;17546;42.674;23.284;2022-07-11T05:27:38;3.83;;;2.00;;
30818;SDS011;17546;42.674;23.284;2022-07-11T05:30:04;6.25;;;1.75;;
30818;SDS011;17546;42.674;23.284;2022-07-11T05:32:31;8.43;;;1.90;;
30818;SDS011;17546;42.674;23.284;2022-07-11T05:34:57;9.95;;;1.83;;
30818;SDS011;17546;42.674;23.284;2022-07-11T05:37:23;4.65;;;1.60;;
30818;SDS011;17546;42.674;23.284;2022-07-11T05:39:49;7.95;;;1.90;;
30818;SDS011;17546;42.674;23.284;2022-07-11T05:42:15;9.07;;;1.58;;
30818;SDS011;17546;42.674;23.284;2022-07-11T05:44:41;2.67;;;1.42;;
30818;SDS011;17546;42.674;23.284;2022-07-11T05:47:07;3.97;;;1.60;;
30818;SDS011;17546;42.674;23.284;2022-07-11T05:49:32;6.63;;;1.52;;
30818;SDS011;17546;42.674;23.284;2022-07-11T05:51:58;5.15;;;1.40;;
30818;SDS011;17546;42.674;23.284;2022-07-11T05:54:29;3.25;;;1.33;;
30818;SDS011;17546;42.674;23.284;2022-07-11T05:56:55;13.85;;;1.48;;
30818;SDS011;17546;42.674;23.284;2022-07-11T05:59:20;12.05;;;1.33;;
30818;SDS011;17546;42.674;23.284;2022-07-11T06:01:46;6.93;;;0.98;;
30818;SDS011;17546;42.674;23.284;2022-07-11T06:04:12;12.85;;;1.17;;
30818;SDS011;17546;42.674;23.284;2022-07-11T06:06:38;4.80;;;1.15;;
30818;SDS011;17546;42.674;23.284;2022-07-11T06:09:04;5.22;;;1.20;;
30818;SDS011;17546;42.674;23.284;2022-07-11T06:11:29;4.05;;;0.90;;
30818;SDS011;17546;42.674;23.284;2022-07-11T06:13:56;2.45;;;1.10;;
30818;SDS011;17546;42.674;23.284;2022-07-11T06:16:26;3.83;;;1.27;;
30818;SDS011;17546;42.674;23.284;2022-07-11T06:18:52;9.10;;;1.48;;
30818;SDS011;17546;42.674;23.284;2022-07-11T06:21:18;7.38;;;1.30;;
30818;SDS011;17546;42.674;23.284;2022-07-11T06:23:45;1.50;;;0.90;;
30818;SDS011;17546;42.674;23.284;2022-07-11T06:26:11;7.97;;;1.00;;
30818;SDS011;17546;42.674;23.284;2022-07-11T06:28:37;3.80;;;0.90;;
30818;SDS011;17546;42.674;23.284;2022-07-11T06:31:05;2.63;;;1.02;;
30818;SDS011;17546;42.674;23.284;2022-07-11T06:33:31;5.28;;;1.30;;
30818;SDS011;17546;42.674;23.284;2022-07-11T06:35:56;6.78;;;1.00;;
30818;SDS011;17546;42.674;23.284;2022-07-11T06:38:22;3.33;;;1.27;;
30818;SDS011;17546;42.674;23.284;2022-07-11T06:40:47;5.10;;;0.88;;
30818;SDS011;17546;42.674;23.284;2022-07-11T06:43:13;2.85;;;1.08;;
30818;SDS011;17546;42.674;23.284;2022-07-11T06:45:39;2.80;;;1.00;;
30818;SDS011;17546;42.674;23.284;2022-07-11T06:48:06;1.85;;;0.90;;
30818;SDS011;17546;42.674;23.284;2022-07-11T06:50:32;3.17;;;1.10;;
30818;SDS011;17546;42.674;23.284;2022-07-11T06:52:58;4.60;;;0.90;;
30818;SDS011;17546;42.674;23.284;2022-07-11T06:55:23;6.60;;;1.10;;
30818;SDS011;17546;42.674;23.284;2022-07-11T06:57:49;7.32;;;1.23;;
30818;SDS011;17546;42.674;23.284;2022-07-11T07:00:17;3.83;;;0.90;;
30818;SDS011;17546;42.674;23.284;2022-07-11T07:02:44;1.85;;;0.88;;
30818;SDS011;17546;42.674;23.284;2022-07-11T07:05:10;3.17;;;1.02;;
30818;SDS011;17546;42.674;23.284;2022-07-11T07:07:35;4.10;;;0.90;;
30818;SDS011;17546;42.674;23.284;2022-07-11T07:10:01;7.05;;;1.10;;
30818;SDS011;17546;42.674;23.284;2022-07-11T07:12:27;5.22;;;1.00;;
30818;SDS011;17546;42.674;23.284;2022-07-11T07:14:53;5.20;;;1.00;;
30818;SDS011;17546;42.674;23.284;2022-07-11T07:17:19;2.20;;;0.90;;
30818;SDS011;17546;42.674;23.284;2022-07-11T07:19:45;6.30;;;1.17;;
30818;SDS011;17546;42.674;23.284;2022-07-11T07:22:10;3.85;;;0.80;;
30818;SDS011;17546;42.674;23.284;2022-07-11T07:24:39;3.75;;;1.00;;
30818;SDS011;17546;42.674;23.284;2022-07-11T07:27:05;4.07;;;1.40;;
30818;SDS011;17546;42.674;23.284;2022-07-11T07:29:34;5.13;;;1.15;;
30818;SDS011;17546;42.674;23.284;2022-07-11T07:31:59;3.28;;;0.90;;
30818;SDS011;17546;42.674;23.284;2022-07-11T07:34:25;3.92;;;1.10;;
30818;SDS011;17546;42.674;23.284;2022-07-11T07:36:50;2.97;;;1.15;;
30818;SDS011;17546;42.674;23.284;2022-07-11T07:39:17;5.72;;;1.38;;
30818;SDS011;17546;42.674;23.284;2022-07-11T07:41:43;3.60;;;0.90;;
30818;SDS011;17546;42.674;23.284;2022-07-11T07:44:09;7.85;;;1.52;;
30818;SDS011;17546;42.674;23.284;2022-07-11T07:46:34;7.82;;;1.65;;
30818;SDS011;17546;42.674;23.284;2022-07-11T07:49:01;8.90;;;1.30;;
30818;SDS011;17546;42.674;23.284;2022-07-11T07:51:28;3.10;;;1.00;;
30818;SDS011;17546;42.674;23.284;2022-07-11T07:53:55;11.10;;;1.45;;
30818;SDS011;17546;42.674;23.284;2022-07-11T07:56:20;7.00;;;1.20;;
30818;SDS011;17546;42.674;23.284;2022-07-11T07:58:46;14.15;;;1.40;;
30818;SDS011;17546;42.674;23.284;2022-07-11T08:01:11;3.17;;;0.90;;
30818;SDS011;17546;42.674;23.284;2022-07-11T08:03:55;7.22;;;1.10;;
30818;SDS011;17546;42.674;23.284;2022-07-11T08:06:21;10.73;;;1.00;;
30818;SDS011;17546;42.674;23.284;2022-07-11T08:08:47;4.88;;;1.45;;
30818;SDS011;17546;42.674;23.284;2022-07-11T08:11:12;3.80;;;1.08;;
30818;SDS011;17546;42.674;23.284;2022-07-11T08:13:39;4.05;;;1.10;;
30818;SDS011;17546;42.674;23.284;2022-07-11T08:16:05;2.28;;;0.80;;
30818;SDS011;17546;42.674;23.284;2022-07-11T08:18:32;4.03;;;1.05;;
30818;SDS011;17546;42.674;23.284;2022-07-11T08:20:58;4.65;;;0.85;;
30818;SDS011;17546;42.674;23.284;2022-07-11T08:23:23;7.72;;;1.27;;
30818;SDS011;17546;42.674;23.284;2022-07-11T08:25:49;5.93;;;1.25;;
30818;SDS011;17546;42.674;23.284;2022-07-11T08:28:14;7.97;;;1.00;;
30818;SDS011;17546;42.674;23.284;2022-07-11T08:30:39;4.40;;;1.13;;
30818;SDS011;17546;42.674;23.284;2022-07-11T08:33:06;2.42;;;1.02;;
30818;SDS011;17546;42.674;23.284;2022-07-11T08:35:32;5.68;;;1.10;;
30818;SDS011;17546;42.674;23.284;2022-07-11T08:37:57;6.47;;;0.93;;
30818;SDS011;17546;42.674;23.284;2022-07-11T08:40:23;11.27;;;1.30;;
30818;SDS011;17546;42.674;23.284;2022-07-11T08:42:48;14.77;;;1.20;;
30818;SDS011;17546;42.674;23.284;2022-07-11T08:45:14;7.53;;;1.00;;
30818;SDS011;17546;42.674;23.284;2022-07-11T08:47:42;2.28;;;0.90;;
30818;SDS011;17546;42.674;23.284;2022-07-11T08:50:09;4.68;;;1.15;;
30818;SDS011;17546;42.674;23.284;2022-07-11T08:52:37;4.60;;;1.17;;
30818;SDS011;17546;42.674;23.284;2022-07-11T08:55:06;2.38;;;0.82;;
30818;SDS011;17546;42.674;23.284;2022-07-11T08:57:34;6.22;;;0.93;;
30818;SDS011;17546;42.674;23.284;2022-07-11T09:00:01;3.03;;;0.90;;
30818;SDS011;17546;42.674;23.284;2022-07-11T09:02:36;3.10;;;1.00;;
30818;SDS011;17546;42.674;23.284;2022-07-11T09:05:06;11.98;;;1.02;;
30818;SDS011;17546;42.674;23.284;2022-07-11T09:07:32;2.63;;;1.20;;
30818;SDS011;17546;42.674;23.284;2022-07-11T09:09:59;2.75;;;0.90;;
30818;SDS011;17546;42.674;23.284;2022-07-11T09:12:24;8.88;;;1.63;;
30818;SDS011;17546;42.674;23.284;2022-07-11T09:14:50;6.68;;;0.95;;
30818;SDS011;17546;42.674;23.284;2022-07-11T09:17:26;5.97;;;1.00;;
30818;SDS011;17546;42.674;23.284;2022-07-11T09:19:57;5.50;;;1.00;;
30818;SDS011;17546;42.674;23.284;2022-07-11T09:22:23;5.70;;;1.02;;
30818;SDS011;17546;42.674;23.284;2022-07-11T09:25:09;6.45;;;0.95;;
30818;SDS011;17546;42.674;23.284;2022-07-11T09:28:00;4.15;;;1.10;;
30818;SDS011;17546;42.674;23.284;2022-07-11T09:30:36;3.13;;;0.80;;
30818;SDS011;17546;42.674;23.284;2022-07-11T09:33:13;7.03;;;1.00;;
30818;SDS011;17546;42.674;23.284;2022-07-11T09:35:39;2.15;;;0.90;;
30818;SDS011;17546;42.674;23.284;2022-07-11T09:38:10;7.50;;;1.20;;
30818;SDS011;17546;42.674;23.284;2022-07-11T09:40:37;3.75;;;1.05;;
30818;SDS011;17546;42.674;23.284;2022-07-11T09:43:04;5.68;;;0.80;;
30818;SDS011;17546;42.674;23.284;2022-07-11T09:45:32;1.15;;;0.60;;
30818;SDS011;17546;42.674;23.284;2022-07-11T09:47:59;8.75;;;0.80;;
30818;SDS011;17546;42.674;23.284;2022-07-11T09:50:26;5.38;;;0.70;;
30818;SDS011;17546;42.674;23.284;2022-07-11T09:53:13;2.78;;;0.90;;
30818;SDS011;17546;42.674;23.284;2022-07-11T09:55:41;3.03;;;1.00;;
30818;SDS011;17546;42.674;23.284;2022-07-11T09:58:10;8.52;;;1.17;;
30818;SDS011;17546;42.674;23.284;2022-07-11T10:00:37;3.72;;;0.80;;
30818;SDS011;17546;42.674;23.284;2022-07-11T10:03:05;4.85;;;1.30;;
30818;SDS011;17546;42.674;23.284;2022-07-11T10:05:31;1.73;;;0.90;;
30818;SDS011;17546;42.674;23.284;2022-07-11T10:07:58;12.75;;;1.67;;
30818;SDS011;17546;42.674;23.284;2022-07-11T10:10:24;3.78;;;0.98;;
30818;SDS011;17546;42.674;23.284;2022-07-11T10:12:54;2.63;;;0.70;;
30818;SDS011;17546;42.674;23.284;2022-07-11T10:15:24;3.30;;;0.85;;
30818;SDS011;17546;42.674;23.284;2022-07-11T10:18:10;2.17;;;0.75;;
30818;SDS011;17546;42.674;23.284;2022-07-11T10:23:28;3.78;;;1.00;;
30818;SDS011;17546;42.674;23.284;2022-07-11T10:25:57;2.58;;;0.80;;
30818;SDS011;17546;42.674;23.284;2022-07-11T10:29:07;1.95;;;0.80;;
30818;SDS011;17546;42.674;23.284;2022-07-11T10:34:33;2.13;;;1.00;;
30818;SDS011;17546;42.674;23.284;2022-07-11T10:36:59;3.15;;;0.90;;
30818;SDS011;17546;42.674;23.284;2022-07-11T10:39:27;2.83;;;0.90;;
30818;SDS011;17546;42.674;23.284;2022-07-11T10:41:53;2.95;;;0.90;;
30818;SDS011;17546;42.674;23.284;2022-07-11T10:44:20;2.35;;;0.85;;
30818;SDS011;17546;42.674;23.284;2022-07-11T10:46:46;4.50;;;0.77;;
30818;SDS011;17546;42.674;23.284;2022-07-11T10:54:14;2.10;;;0.80;;
30818;SDS011;17546;42.674;23.284;2022-07-11T11:02:24;4.35;;;1.00;;
30818;SDS011;17546;42.674;23.284;2022-07-11T11:04:51;5.43;;;1.00;;
30818;SDS011;17546;42.674;23.284;2022-07-11T11:10:44;5.85;;;1.02;;
30818;SDS011;17546;42.674;23.284;2022-07-11T11:15:45;2.85;;;0.95;;
30818;SDS011;17546;42.674;23.284;2022-07-11T11:18:48;7.13;;;0.93;;
30818;SDS011;17546;42.674;23.284;2022-07-11T11:23:39;2.45;;;0.93;;
30818;SDS011;17546;42.674;23.284;2022-07-11T11:26:16;3.97;;;0.77;;
30818;SDS011;17546;42.674;23.284;2022-07-11T11:28:56;5.60;;;0.75;;
30818;SDS011;17546;42.674;23.284;2022-07-11T11:31:26;2.53;;;1.10;;
30818;SDS011;17546;42.674;23.284;2022-07-11T11:33:52;6.57;;;1.00;;
30818;SDS011;17546;42.674;23.284;2022-07-11T11:36:19;8.68;;;1.15;;
30818;SDS011;17546;42.674;23.284;2022-07-11T11:38:47;1.17;;;0.82;;
30818;SDS011;17546;42.674;23.284;2022-07-11T11:41:14;7.68;;;1.00;;
30818;SDS011;17546;42.674;23.284;2022-07-11T11:43:50;4.40;;;0.88;;
30818;SDS011;17546;42.674;23.284;2022-07-11T11:46:17;5.47;;;1.02;;
30818;SDS011;17546;42.674;23.284;2022-07-11T11:48:43;4.60;;;0.90;;
30818;SDS011;17546;42.674;23.284;2022-07-11T11:58:46;3.92;;;1.00;;
30818;SDS011;17546;42.674;23.284;2022-07-11T12:01:12;2.25;;;0.88;;
30818;SDS011;17546;42.674;23.284;2022-07-11T12:03:51;2.58;;;0.93;;
30818;SDS011;17546;42.674;23.284;2022-07-11T12:06:26;3.10;;;0.80;;
30818;SDS011;17546;42.674;23.284;2022-07-11T12:09:00;1.70;;;0.85;;
30818;SDS011;17546;42.674;23.284;2022-07-11T12:11:28;2.75;;;0.85;;
30818;SDS011;17546;42.674;23.284;2022-07-11T12:14:12;5.75;;;1.00;;
30818;SDS011;17546;42.674;23.284;2022-07-11T12:16:39;3.05;;;1.00;;
30818;SDS011;17546;42.674;23.284;2022-07-11T12:19:08;10.23;;;0.80;;
30818;SDS011;17546;42.674;23.284;2022-07-11T12:21:35;1.35;;;0.75;;
30818;SDS011;17546;42.674;23.284;2022-07-11T12:24:02;6.05;;;0.95;;
30818;SDS011;17546;42.674;23.284;2022-07-11T12:26:30;4.45;;;0.90;;
30818;SDS011;17546;42.674;23.284;2022-07-11T12:31:39;4.00;;;0.95;;
30818;SDS011;17546;42.674;23.284;2022-07-11T12:34:06;2.72;;;1.10;;
30818;SDS011;17546;42.674;23.284;2022-07-11T12:36:32;2.17;;;0.90;;
30818;SDS011;17546;42.674;23.284;2022-07-11T12:38:57;11.02;;;0.90;;
30818;SDS011;17546;42.674;23.284;2022-07-11T12:41:23;8.32;;;1.23;;
30818;SDS011;17546;42.674;23.284;2022-07-11T12:46:37;6.55;;;1.60;;
30818;SDS011;17546;42.674;23.284;2022-07-11T12:49:04;7.85;;;1.48;;
30818;SDS011;17546;42.674;23.284;2022-07-11T12:51:32;2.22;;;0.93;;
30818;SDS011;17546;42.674;23.284;2022-07-11T12:54:03;3.60;;;0.95;;
30818;SDS011;17546;42.674;23.284;2022-07-11T12:56:31;8.05;;;1.65;;
30818;SDS011;17546;42.674;23.284;2022-07-11T12:58:57;7.60;;;1.88;;
30818;SDS011;17546;42.674;23.284;2022-07-11T13:01:27;5.55;;;1.08;;
30818;SDS011;17546;42.674;23.284;2022-07-11T13:03:53;2.65;;;1.30;;
30818;SDS011;17546;42.674;23.284;2022-07-11T13:06:19;3.10;;;0.90;;
30818;SDS011;17546;42.674;23.284;2022-07-11T13:09:05;4.03;;;1.10;;
30818;SDS011;17546;42.674;23.284;2022-07-11T13:11:31;4.85;;;1.23;;
30818;SDS011;17546;42.674;23.284;2022-07-11T13:13:57;2.88;;;0.90;;
30818;SDS011;17546;42.674;23.284;2022-07-11T13:16:23;8.65;;;1.33;;
30818;SDS011;17546;42.674;23.284;2022-07-11T13:18:49;6.60;;;0.90;;
30818;SDS011;17546;42.674;23.284;2022-07-11T13:21:15;12.48;;;1.50;;
30818;SDS011;17546;42.674;23.284;2022-07-11T13:23:41;9.65;;;1.08;;
30818;SDS011;17546;42.674;23.284;2022-07-11T13:26:07;4.97;;;0.90;;
30818;SDS011;17546;42.674;23.284;2022-07-11T13:28:34;5.15;;;0.93;;
30818;SDS011;17546;42.674;23.284;2022-07-11T13:31:00;1.70;;;0.90;;
30818;SDS011;17546;42.674;23.284;2022-07-11T13:33:26;3.55;;;0.80;;
30818;SDS011;17546;42.674;23.284;2022-07-11T13:35:52;4.03;;;0.93;;
30818;SDS011;17546;42.674;23.284;2022-07-11T13:38:18;4.55;;;0.90;;
30818;SDS011;17546;42.674;23.284;2022-07-11T13:40:44;4.75;;;1.08;;
30818;SDS011;17546;42.674;23.284;2022-07-11T13:43:11;6.45;;;1.10;;
30818;SDS011;17546;42.674;23.284;2022-07-11T13:45:37;7.47;;;1.10;;
30818;SDS011;17546;42.674;23.284;2022-07-11T13:48:05;4.10;;;0.95;;
30818;SDS011;17546;42.674;23.284;2022-07-11T13:50:31;2.17;;;0.90;;
30818;SDS011;17546;42.674;23.284;2022-07-11T13:52:56;2.72;;;0.95;;
30818;SDS011;17546;42.674;23.284;2022-07-11T13:55:22;5.65;;;0.90;;
30818;SDS011;17546;42.674;23.284;2022-07-11T13:57:51;2.25;;;1.00;;
30818;SDS011;17546;42.674;23.284;2022-07-11T14:00:18;3.75;;;1.02;;
30818;SDS011;17546;42.674;23.284;2022-07-11T14:02:45;3.47;;;1.20;;
30818;SDS011;17546;42.674;23.284;2022-07-11T14:05:14;8.90;;;1.25;;
30818;SDS011;17546;42.674;23.284;2022-07-11T14:07:40;2.67;;;1.02;;
30818;SDS011;17546;42.674;23.284;2022-07-11T14:10:07;5.43;;;1.20;;
30818;SDS011;17546;42.674;23.284;2022-07-11T14:12:34;2.03;;;1.00;;
30818;SDS011;17546;42.674;23.284;2022-07-11T14:14:59;4.93;;;1.00;;
30818;SDS011;17546;42.674;23.284;2022-07-11T14:17:25;5.90;;;0.95;;
30818;SDS011;17546;42.674;23.284;2022-07-11T14:19:54;4.07;;;0.90;;
30818;SDS011;17546;42.674;23.284;2022-07-11T14:22:21;3.72;;;1.10;;
30818;SDS011;17546;42.674;23.284;2022-07-11T14:24:46;3.63;;;1.02;;
30818;SDS011;17546;42.674;23.284;2022-07-11T14:27:13;5.20;;;1.05;;
30818;SDS011;17546;42.674;23.284;2022-07-11T14:29:43;3.28;;;1.23;;
30818;SDS011;17546;42.674;23.284;2022-07-11T14:32:10;4.18;;;0.85;;
30818;SDS011;17546;42.674;23.284;2022-07-11T14:34:37;3.42;;;1.15;;
30818;SDS011;17546;42.674;23.284;2022-07-11T14:37:03;1.77;;;0.95;;
30818;SDS011;17546;42.674;23.284;2022-07-11T14:39:30;3.17;;;0.90;;
30818;SDS011;17546;42.674;23.284;2022-07-11T14:41:56;2.15;;;1.20;;
30818;SDS011;17546;42.674;23.284;2022-07-11T14:44:21;4.88;;;1.02;;
30818;SDS011;17546;42.674;23.284;2022-07-11T14:46:47;5.03;;;1.00;;
30818;SDS011;17546;42.674;23.284;2022-07-11T14:49:15;1.98;;;0.77;;
30818;SDS011;17546;42.674;23.284;2022-07-11T14:51:41;6.65;;;1.05;;
30818;SDS011;17546;42.674;23.284;2022-07-11T14:54:07;4.43;;;1.23;;
30818;SDS011;17546;42.674;23.284;2022-07-11T14:56:33;2.47;;;0.90;;
30818;SDS011;17546;42.674;23.284;2022-07-11T14:58:58;2.65;;;1.02;;
30818;SDS011;17546;42.674;23.284;2022-07-11T15:01:24;6.55;;;1.00;;
30818;SDS011;17546;42.674;23.284;2022-07-11T15:03:49;2.28;;;0.98;;
30818;SDS011;17546;42.674;23.284;2022-07-11T15:06:15;11.07;;;1.30;;
30818;SDS011;17546;42.674;23.284;2022-07-11T15:08:41;3.47;;;1.15;;
30818;SDS011;17546;42.674;23.284;2022-07-11T15:11:26;7.20;;;1.10;;